sensor_id;sensor_type;location;lat;lon;timestamp;P1;durP1;ratioP1;P2;durP2;ratioP2
16270;SDS011;8243;49.048;8.396;2023-03-01T00:01:16;8.67;;;6.83;;
16270;SDS011;8243;49.048;8.396;2023-03-01T00:03:44;9.30;;;6.60;;
16270;SDS011;8243;49.048;8.396;2023-03-01T00:06:09;10.63;;;6.97;;
16270;SDS011;8243;49.048;8.396;2023-03-01T00:08:35;9.77;;;7.17;;
16270;SDS011;8243;49.048;8.396;2023-03-01T00:13:27;9.03;;;7.07;;
16270;SDS011;8243;49.048;8.396;2023-03-01T00:15:53;11.40;;;8.00;;
16270;SDS011;8243;49.048;8.396;2023-03-01T00:18:18;9.87;;;7.93;;
16270;SDS011;8243;49.048;8.396;2023-03-01T00:20:53;10.67;;;6.73;;
16270;SDS011;8243;49.048;8.396;2023-03-01T00:23:20;8.70;;;6.83;;
16270;SDS011;8243;49.048;8.396;2023-03-01T00:25:46;8.70;;;6.93;;
16270;SDS011;8243;49.048;8.396;2023-03-01T00:28:11;11.27;;;6.87;;
16270;SDS011;8243;49.048;8.396;2023-03-01T00:30:37;10.30;;;7.17;;
16270;SDS011;8243;49.048;8.396;2023-03-01T00:33:02;10.37;;;7.03;;
16270;SDS011;8243;49.048;8.396;2023-03-01T00:35:28;9.57;;;6.50;;
16270;SDS011;8243;49.048;8.396;2023-03-01T00:37:54;10.30;;;7.30;;
16270;SDS011;8243;49.048;8.396;2023-03-01T00:40:26;10.40;;;7.17;;
16270;SDS011;8243;49.048;8.396;2023-03-01T00:42:52;9.53;;;7.53;;
16270;SDS011;8243;49.048;8.396;2023-03-01T00:45:18;11.40;;;7.00;;
16270;SDS011;8243;49.048;8.396;2023-03-01T00:47:44;10.60;;;7.80;;
16270;SDS011;8243;49.048;8.396;2023-03-01T00:50:10;10.80;;;8.37;;
16270;SDS011;8243;49.048;8.396;2023-03-01T00:52:36;9.77;;;7.50;;
16270;SDS011;8243;49.048;8.396;2023-03-01T00:55:02;11.17;;;8.00;;
16270;SDS011;8243;49.048;8.396;2023-03-01T00:57:28;10.90;;;7.83;;
16270;SDS011;8243;49.048;8.396;2023-03-01T00:59:54;9.67;;;8.07;;
16270;SDS011;8243;49.048;8.396;2023-03-01T01:02:19;14.27;;;8.13;;
16270;SDS011;8243;49.048;8.396;2023-03-01T01:04:45;13.40;;;7.57;;
16270;SDS011;8243;49.048;8.396;2023-03-01T01:07:12;11.90;;;7.90;;
16270;SDS011;8243;49.048;8.396;2023-03-01T01:09:38;10.47;;;7.50;;
16270;SDS011;8243;49.048;8.396;2023-03-01T01:12:04;9.47;;;7.53;;
16270;SDS011;8243;49.048;8.396;2023-03-01T01:14:30;10.60;;;7.30;;
16270;SDS011;8243;49.048;8.396;2023-03-01T01:16:56;8.57;;;6.70;;
16270;SDS011;8243;49.048;8.396;2023-03-01T01:19:22;9.90;;;7.77;;
16270;SDS011;8243;49.048;8.396;2023-03-01T01:21:48;7.80;;;6.60;;
16270;SDS011;8243;49.048;8.396;2023-03-01T01:24:14;10.37;;;8.07;;
16270;SDS011;8243;49.048;8.396;2023-03-01T01:26:40;12.87;;;8.33;;
16270;SDS011;8243;49.048;8.396;2023-03-01T01:29:06;9.10;;;6.97;;
16270;SDS011;8243;49.048;8.396;2023-03-01T01:31:32;9.70;;;7.37;;
16270;SDS011;8243;49.048;8.396;2023-03-01T01:33:59;11.60;;;7.80;;
16270;SDS011;8243;49.048;8.396;2023-03-01T01:36:26;11.13;;;8.07;;
16270;SDS011;8243;49.048;8.396;2023-03-01T01:38:52;11.97;;;7.47;;
16270;SDS011;8243;49.048;8.396;2023-03-01T01:41:18;10.87;;;8.07;;
16270;SDS011;8243;49.048;8.396;2023-03-01T01:43:46;10.93;;;8.40;;
16270;SDS011;8243;49.048;8.396;2023-03-01T01:46:30;12.27;;;8.03;;
16270;SDS011;8243;49.048;8.396;2023-03-01T01:48:58;10.73;;;7.83;;
16270;SDS011;8243;49.048;8.396;2023-03-01T01:51:30;10.10;;;7.60;;
16270;SDS011;8243;49.048;8.396;2023-03-01T01:54:03;10.93;;;8.47;;
16270;SDS011;8243;49.048;8.396;2023-03-01T01:56:32;11.77;;;7.07;;
16270;SDS011;8243;49.048;8.396;2023-03-01T01:58:57;12.73;;;8.53;;
16270;SDS011;8243;49.048;8.396;2023-03-01T02:01:23;10.20;;;8.13;;
16270;SDS011;8243;49.048;8.396;2023-03-01T02:03:49;11.63;;;8.20;;
16270;SDS011;8243;49.048;8.396;2023-03-01T02:06:29;14.60;;;10.57;;
16270;SDS011;8243;49.048;8.396;2023-03-01T02:09:00;16.13;;;10.23;;
16270;SDS011;8243;49.048;8.396;2023-03-01T02:11:30;11.93;;;8.23;;
16270;SDS011;8243;49.048;8.396;2023-03-01T02:13:58;13.37;;;10.10;;
16270;SDS011;8243;49.048;8.396;2023-03-01T02:16:25;10.23;;;7.80;;
16270;SDS011;8243;49.048;8.396;2023-03-01T02:18:51;11.30;;;8.50;;
16270;SDS011;8243;49.048;8.396;2023-03-01T02:21:28;11.87;;;9.07;;
16270;SDS011;8243;49.048;8.396;2023-03-01T02:24:05;12.37;;;8.60;;
16270;SDS011;8243;49.048;8.396;2023-03-01T02:26:56;13.83;;;9.40;;
16270;SDS011;8243;49.048;8.396;2023-03-01T02:29:23;13.93;;;9.40;;
16270;SDS011;8243;49.048;8.396;2023-03-01T02:31:49;11.73;;;9.30;;
16270;SDS011;8243;49.048;8.396;2023-03-01T02:34:18;11.00;;;8.40;;
16270;SDS011;8243;49.048;8.396;2023-03-01T02:36:51;12.40;;;9.17;;
16270;SDS011;8243;49.048;8.396;2023-03-01T02:39:25;12.30;;;8.97;;
16270;SDS011;8243;49.048;8.396;2023-03-01T02:41:55;13.50;;;9.70;;
16270;SDS011;8243;49.048;8.396;2023-03-01T02:44:22;12.57;;;9.47;;
16270;SDS011;8243;49.048;8.396;2023-03-01T02:46:49;12.40;;;9.10;;
16270;SDS011;8243;49.048;8.396;2023-03-01T02:49:27;12.80;;;9.20;;
16270;SDS011;8243;49.048;8.396;2023-03-01T02:57:22;12.77;;;9.30;;
16270;SDS011;8243;49.048;8.396;2023-03-01T02:59:49;12.33;;;9.30;;
16270;SDS011;8243;49.048;8.396;2023-03-01T03:02:20;11.20;;;8.93;;
16270;SDS011;8243;49.048;8.396;2023-03-01T03:05:09;11.87;;;8.53;;
16270;SDS011;8243;49.048;8.396;2023-03-01T03:07:38;11.10;;;9.03;;
16270;SDS011;8243;49.048;8.396;2023-03-01T03:10:07;14.13;;;8.87;;
16270;SDS011;8243;49.048;8.396;2023-03-01T03:12:38;13.67;;;9.77;;
16270;SDS011;8243;49.048;8.396;2023-03-01T03:15:04;13.67;;;9.60;;
16270;SDS011;8243;49.048;8.396;2023-03-01T03:17:37;13.77;;;9.53;;
16270;SDS011;8243;49.048;8.396;2023-03-01T03:20:04;19.20;;;9.37;;
16270;SDS011;8243;49.048;8.396;2023-03-01T03:22:31;14.67;;;9.47;;
16270;SDS011;8243;49.048;8.396;2023-03-01T03:24:58;14.40;;;9.47;;
16270;SDS011;8243;49.048;8.396;2023-03-01T03:27:24;13.73;;;9.40;;
16270;SDS011;8243;49.048;8.396;2023-03-01T03:29:50;12.90;;;9.07;;
16270;SDS011;8243;49.048;8.396;2023-03-01T03:32:15;13.70;;;9.90;;
16270;SDS011;8243;49.048;8.396;2023-03-01T03:34:41;13.60;;;9.27;;
16270;SDS011;8243;49.048;8.396;2023-03-01T03:37:06;15.67;;;9.77;;
16270;SDS011;8243;49.048;8.396;2023-03-01T03:39:52;13.43;;;10.30;;
16270;SDS011;8243;49.048;8.396;2023-03-01T03:42:19;13.60;;;10.50;;
16270;SDS011;8243;49.048;8.396;2023-03-01T03:44:46;12.57;;;9.63;;
16270;SDS011;8243;49.048;8.396;2023-03-01T03:47:12;12.77;;;10.27;;
16270;SDS011;8243;49.048;8.396;2023-03-01T03:49:38;13.50;;;9.97;;
16270;SDS011;8243;49.048;8.396;2023-03-01T03:52:03;12.70;;;10.03;;
16270;SDS011;8243;49.048;8.396;2023-03-01T03:54:29;16.40;;;10.40;;
16270;SDS011;8243;49.048;8.396;2023-03-01T03:56:54;13.80;;;10.50;;
16270;SDS011;8243;49.048;8.396;2023-03-01T03:59:20;11.70;;;9.20;;
16270;SDS011;8243;49.048;8.396;2023-03-01T04:01:45;14.63;;;10.00;;
16270;SDS011;8243;49.048;8.396;2023-03-01T04:04:11;13.00;;;10.10;;
16270;SDS011;8243;49.048;8.396;2023-03-01T04:06:36;14.43;;;10.57;;
16270;SDS011;8243;49.048;8.396;2023-03-01T04:09:02;12.93;;;9.43;;
16270;SDS011;8243;49.048;8.396;2023-03-01T04:11:28;14.53;;;10.27;;
16270;SDS011;8243;49.048;8.396;2023-03-01T04:13:54;14.10;;;9.60;;
16270;SDS011;8243;49.048;8.396;2023-03-01T04:16:21;14.07;;;9.93;;
16270;SDS011;8243;49.048;8.396;2023-03-01T04:18:47;13.93;;;10.33;;
16270;SDS011;8243;49.048;8.396;2023-03-01T04:21:13;13.90;;;10.17;;
16270;SDS011;8243;49.048;8.396;2023-03-01T04:23:39;15.47;;;10.60;;
16270;SDS011;8243;49.048;8.396;2023-03-01T04:26:05;20.27;;;12.87;;
16270;SDS011;8243;49.048;8.396;2023-03-01T04:28:32;19.00;;;13.53;;
16270;SDS011;8243;49.048;8.396;2023-03-01T04:31:02;19.57;;;12.23;;
16270;SDS011;8243;49.048;8.396;2023-03-01T04:33:38;13.53;;;9.53;;
16270;SDS011;8243;49.048;8.396;2023-03-01T04:36:08;14.57;;;9.03;;
16270;SDS011;8243;49.048;8.396;2023-03-01T04:38:35;13.33;;;9.27;;
16270;SDS011;8243;49.048;8.396;2023-03-01T04:41:05;11.83;;;8.53;;
16270;SDS011;8243;49.048;8.396;2023-03-01T04:43:32;13.83;;;9.37;;
16270;SDS011;8243;49.048;8.396;2023-03-01T04:46:02;13.40;;;9.93;;
16270;SDS011;8243;49.048;8.396;2023-03-01T04:48:29;17.90;;;10.77;;
16270;SDS011;8243;49.048;8.396;2023-03-01T04:50:56;16.57;;;11.23;;
16270;SDS011;8243;49.048;8.396;2023-03-01T04:53:23;15.47;;;10.77;;
16270;SDS011;8243;49.048;8.396;2023-03-01T04:55:49;16.83;;;10.73;;
16270;SDS011;8243;49.048;8.396;2023-03-01T04:58:15;17.07;;;10.33;;
16270;SDS011;8243;49.048;8.396;2023-03-01T05:00:40;14.97;;;10.00;;
16270;SDS011;8243;49.048;8.396;2023-03-01T05:03:06;15.77;;;10.20;;
16270;SDS011;8243;49.048;8.396;2023-03-01T05:05:34;17.07;;;10.73;;
16270;SDS011;8243;49.048;8.396;2023-03-01T05:08:05;14.97;;;10.23;;
16270;SDS011;8243;49.048;8.396;2023-03-01T05:10:33;16.00;;;9.90;;
16270;SDS011;8243;49.048;8.396;2023-03-01T05:13:00;17.47;;;9.67;;
16270;SDS011;8243;49.048;8.396;2023-03-01T05:15:28;15.90;;;10.43;;
16270;SDS011;8243;49.048;8.396;2023-03-01T05:17:55;16.30;;;9.53;;
16270;SDS011;8243;49.048;8.396;2023-03-01T05:20:23;13.90;;;9.40;;
16270;SDS011;8243;49.048;8.396;2023-03-01T05:22:49;14.20;;;10.77;;
16270;SDS011;8243;49.048;8.396;2023-03-01T05:25:16;14.17;;;10.40;;
16270;SDS011;8243;49.048;8.396;2023-03-01T05:27:41;16.80;;;10.50;;
16270;SDS011;8243;49.048;8.396;2023-03-01T05:30:10;16.47;;;10.57;;
16270;SDS011;8243;49.048;8.396;2023-03-01T05:32:48;15.73;;;10.20;;
16270;SDS011;8243;49.048;8.396;2023-03-01T05:35:20;15.70;;;10.20;;
16270;SDS011;8243;49.048;8.396;2023-03-01T05:37:46;15.07;;;10.27;;
16270;SDS011;8243;49.048;8.396;2023-03-01T05:40:15;13.80;;;9.87;;
16270;SDS011;8243;49.048;8.396;2023-03-01T05:42:46;15.73;;;10.23;;
16270;SDS011;8243;49.048;8.396;2023-03-01T05:45:13;14.27;;;9.50;;
16270;SDS011;8243;49.048;8.396;2023-03-01T05:47:40;17.83;;;10.77;;
16270;SDS011;8243;49.048;8.396;2023-03-01T05:50:13;14.77;;;10.03;;
16270;SDS011;8243;49.048;8.396;2023-03-01T05:52:48;16.83;;;11.53;;
16270;SDS011;8243;49.048;8.396;2023-03-01T05:55:16;21.93;;;12.90;;
16270;SDS011;8243;49.048;8.396;2023-03-01T05:57:42;20.53;;;12.50;;
16270;SDS011;8243;49.048;8.396;2023-03-01T06:00:09;19.20;;;12.40;;
16270;SDS011;8243;49.048;8.396;2023-03-01T06:02:35;22.00;;;12.50;;
16270;SDS011;8243;49.048;8.396;2023-03-01T06:05:01;16.47;;;11.53;;
16270;SDS011;8243;49.048;8.396;2023-03-01T06:07:27;18.83;;;11.30;;
16270;SDS011;8243;49.048;8.396;2023-03-01T06:09:53;17.57;;;11.27;;
16270;SDS011;8243;49.048;8.396;2023-03-01T06:12:18;14.93;;;11.00;;
16270;SDS011;8243;49.048;8.396;2023-03-01T06:14:44;16.63;;;10.93;;
16270;SDS011;8243;49.048;8.396;2023-03-01T06:17:12;16.47;;;11.60;;
16270;SDS011;8243;49.048;8.396;2023-03-01T06:19:39;16.37;;;10.87;;
16270;SDS011;8243;49.048;8.396;2023-03-01T06:22:07;17.57;;;11.37;;
16270;SDS011;8243;49.048;8.396;2023-03-01T06:24:33;17.80;;;11.60;;
16270;SDS011;8243;49.048;8.396;2023-03-01T06:26:59;15.73;;;11.03;;
16270;SDS011;8243;49.048;8.396;2023-03-01T06:29:25;17.80;;;11.40;;
16270;SDS011;8243;49.048;8.396;2023-03-01T06:31:50;17.63;;;12.20;;
16270;SDS011;8243;49.048;8.396;2023-03-01T06:34:16;17.17;;;11.07;;
16270;SDS011;8243;49.048;8.396;2023-03-01T06:36:42;18.07;;;10.57;;
16270;SDS011;8243;49.048;8.396;2023-03-01T06:39:07;13.93;;;9.70;;
16270;SDS011;8243;49.048;8.396;2023-03-01T06:41:33;17.77;;;11.00;;
16270;SDS011;8243;49.048;8.396;2023-03-01T06:43:58;14.87;;;10.37;;
16270;SDS011;8243;49.048;8.396;2023-03-01T06:46:24;15.70;;;11.50;;
16270;SDS011;8243;49.048;8.396;2023-03-01T06:48:50;17.47;;;11.80;;
16270;SDS011;8243;49.048;8.396;2023-03-01T06:51:15;14.83;;;10.97;;
16270;SDS011;8243;49.048;8.396;2023-03-01T06:53:41;15.90;;;10.70;;
16270;SDS011;8243;49.048;8.396;2023-03-01T06:56:07;16.60;;;10.03;;
16270;SDS011;8243;49.048;8.396;2023-03-01T06:58:32;14.53;;;10.33;;
16270;SDS011;8243;49.048;8.396;2023-03-01T07:00:58;16.50;;;10.23;;
16270;SDS011;8243;49.048;8.396;2023-03-01T07:03:23;12.40;;;8.00;;
16270;SDS011;8243;49.048;8.396;2023-03-01T07:05:49;14.97;;;10.20;;
16270;SDS011;8243;49.048;8.396;2023-03-01T07:08:17;14.27;;;10.03;;
16270;SDS011;8243;49.048;8.396;2023-03-01T07:10:43;15.77;;;10.00;;
16270;SDS011;8243;49.048;8.396;2023-03-01T07:13:08;16.77;;;11.50;;
16270;SDS011;8243;49.048;8.396;2023-03-01T07:15:34;17.43;;;10.40;;
16270;SDS011;8243;49.048;8.396;2023-03-01T07:17:59;15.17;;;9.87;;
16270;SDS011;8243;49.048;8.396;2023-03-01T07:20:25;13.73;;;10.40;;
16270;SDS011;8243;49.048;8.396;2023-03-01T07:22:51;14.63;;;10.13;;
16270;SDS011;8243;49.048;8.396;2023-03-01T07:25:17;15.67;;;11.27;;
16270;SDS011;8243;49.048;8.396;2023-03-01T07:27:50;14.07;;;10.37;;
16270;SDS011;8243;49.048;8.396;2023-03-01T07:30:17;14.83;;;10.20;;
16270;SDS011;8243;49.048;8.396;2023-03-01T07:32:43;15.03;;;10.40;;
16270;SDS011;8243;49.048;8.396;2023-03-01T07:35:08;15.07;;;10.63;;
16270;SDS011;8243;49.048;8.396;2023-03-01T07:37:34;15.90;;;10.80;;
16270;SDS011;8243;49.048;8.396;2023-03-01T07:39:59;16.33;;;11.83;;
16270;SDS011;8243;49.048;8.396;2023-03-01T07:42:25;17.97;;;11.43;;
16270;SDS011;8243;49.048;8.396;2023-03-01T07:44:50;17.93;;;10.63;;
16270;SDS011;8243;49.048;8.396;2023-03-01T07:47:16;14.50;;;10.50;;
16270;SDS011;8243;49.048;8.396;2023-03-01T07:49:42;17.37;;;11.17;;
16270;SDS011;8243;49.048;8.396;2023-03-01T07:52:09;14.50;;;10.87;;
16270;SDS011;8243;49.048;8.396;2023-03-01T07:54:36;19.83;;;11.00;;
16270;SDS011;8243;49.048;8.396;2023-03-01T07:57:02;15.07;;;11.00;;
16270;SDS011;8243;49.048;8.396;2023-03-01T07:59:27;15.57;;;10.60;;
16270;SDS011;8243;49.048;8.396;2023-03-01T08:01:54;15.30;;;9.43;;
16270;SDS011;8243;49.048;8.396;2023-03-01T08:04:20;15.80;;;11.40;;
16270;SDS011;8243;49.048;8.396;2023-03-01T08:06:46;14.87;;;10.83;;
16270;SDS011;8243;49.048;8.396;2023-03-01T08:09:11;13.70;;;11.50;;
16270;SDS011;8243;49.048;8.396;2023-03-01T08:11:38;15.93;;;9.93;;
16270;SDS011;8243;49.048;8.396;2023-03-01T08:14:03;16.13;;;11.87;;
16270;SDS011;8243;49.048;8.396;2023-03-01T08:16:29;15.37;;;11.10;;
16270;SDS011;8243;49.048;8.396;2023-03-01T08:18:55;19.17;;;11.30;;
16270;SDS011;8243;49.048;8.396;2023-03-01T08:21:24;12.63;;;8.47;;
16270;SDS011;8243;49.048;8.396;2023-03-01T08:23:49;15.57;;;11.63;;
16270;SDS011;8243;49.048;8.396;2023-03-01T08:26:16;19.17;;;10.17;;
16270;SDS011;8243;49.048;8.396;2023-03-01T08:28:44;41.43;;;13.73;;
16270;SDS011;8243;49.048;8.396;2023-03-01T08:31:13;17.57;;;11.90;;
16270;SDS011;8243;49.048;8.396;2023-03-01T08:33:45;15.83;;;8.87;;
16270;SDS011;8243;49.048;8.396;2023-03-01T08:36:16;17.63;;;10.93;;
16270;SDS011;8243;49.048;8.396;2023-03-01T08:38:42;11.33;;;8.57;;
16270;SDS011;8243;49.048;8.396;2023-03-01T08:41:09;15.60;;;11.30;;
16270;SDS011;8243;49.048;8.396;2023-03-01T08:43:34;15.57;;;11.37;;
16270;SDS011;8243;49.048;8.396;2023-03-01T08:46:00;12.23;;;8.80;;
16270;SDS011;8243;49.048;8.396;2023-03-01T08:48:27;14.13;;;10.17;;
16270;SDS011;8243;49.048;8.396;2023-03-01T08:50:53;9.60;;;7.37;;
16270;SDS011;8243;49.048;8.396;2023-03-01T08:53:18;12.20;;;8.00;;
16270;SDS011;8243;49.048;8.396;2023-03-01T08:55:44;15.40;;;10.27;;
16270;SDS011;8243;49.048;8.396;2023-03-01T08:58:09;13.50;;;9.43;;
16270;SDS011;8243;49.048;8.396;2023-03-01T09:00:35;13.43;;;8.70;;
16270;SDS011;8243;49.048;8.396;2023-03-01T09:03:01;15.83;;;11.63;;
16270;SDS011;8243;49.048;8.396;2023-03-01T09:05:27;15.20;;;10.30;;
16270;SDS011;8243;49.048;8.396;2023-03-01T09:07:52;13.83;;;9.57;;
16270;SDS011;8243;49.048;8.396;2023-03-01T09:10:18;9.97;;;7.83;;
16270;SDS011;8243;49.048;8.396;2023-03-01T09:12:43;15.27;;;10.03;;
16270;SDS011;8243;49.048;8.396;2023-03-01T09:15:09;14.63;;;8.13;;
16270;SDS011;8243;49.048;8.396;2023-03-01T09:17:35;15.07;;;11.13;;
16270;SDS011;8243;49.048;8.396;2023-03-01T09:20:01;15.57;;;10.20;;
16270;SDS011;8243;49.048;8.396;2023-03-01T09:22:27;15.37;;;9.50;;
16270;SDS011;8243;49.048;8.396;2023-03-01T09:24:53;13.10;;;9.67;;
16270;SDS011;8243;49.048;8.396;2023-03-01T09:27:19;15.93;;;10.10;;
16270;SDS011;8243;49.048;8.396;2023-03-01T09:29:44;13.30;;;8.20;;
16270;SDS011;8243;49.048;8.396;2023-03-01T09:32:10;13.50;;;10.57;;
16270;SDS011;8243;49.048;8.396;2023-03-01T09:34:36;14.20;;;10.83;;
16270;SDS011;8243;49.048;8.396;2023-03-01T09:37:20;15.27;;;10.70;;
16270;SDS011;8243;49.048;8.396;2023-03-01T09:39:45;14.70;;;10.17;;
16270;SDS011;8243;49.048;8.396;2023-03-01T09:42:11;16.40;;;11.30;;
16270;SDS011;8243;49.048;8.396;2023-03-01T09:47:29;16.63;;;11.40;;
16270;SDS011;8243;49.048;8.396;2023-03-01T09:52:50;11.60;;;8.53;;
16270;SDS011;8243;49.048;8.396;2023-03-01T09:58:29;14.87;;;11.50;;
16270;SDS011;8243;49.048;8.396;2023-03-01T10:01:14;16.27;;;12.13;;
16270;SDS011;8243;49.048;8.396;2023-03-01T10:03:58;16.83;;;10.17;;
16270;SDS011;8243;49.048;8.396;2023-03-01T10:09:42;16.20;;;11.40;;
16270;SDS011;8243;49.048;8.396;2023-03-01T10:12:11;13.73;;;10.33;;
16270;SDS011;8243;49.048;8.396;2023-03-01T10:17:30;17.97;;;12.30;;
16270;SDS011;8243;49.048;8.396;2023-03-01T10:20:10;12.87;;;8.83;;
16270;SDS011;8243;49.048;8.396;2023-03-01T10:22:41;21.40;;;11.63;;
16270;SDS011;8243;49.048;8.396;2023-03-01T10:25:08;16.83;;;12.93;;
16270;SDS011;8243;49.048;8.396;2023-03-01T10:27:46;14.50;;;9.77;;
16270;SDS011;8243;49.048;8.396;2023-03-01T10:30:37;15.57;;;10.70;;
16270;SDS011;8243;49.048;8.396;2023-03-01T10:33:08;14.97;;;11.03;;
16270;SDS011;8243;49.048;8.396;2023-03-01T10:35:45;14.90;;;8.00;;
16270;SDS011;8243;49.048;8.396;2023-03-01T10:38:12;17.43;;;11.47;;
16270;SDS011;8243;49.048;8.396;2023-03-01T10:43:45;15.40;;;11.10;;
16270;SDS011;8243;49.048;8.396;2023-03-01T10:46:26;18.80;;;11.63;;
16270;SDS011;8243;49.048;8.396;2023-03-01T10:51:46;15.77;;;10.53;;
16270;SDS011;8243;49.048;8.396;2023-03-01T10:54:17;15.13;;;10.80;;
16270;SDS011;8243;49.048;8.396;2023-03-01T10:56:53;16.27;;;11.87;;
16270;SDS011;8243;49.048;8.396;2023-03-01T11:04:56;17.20;;;13.00;;
16270;SDS011;8243;49.048;8.396;2023-03-01T11:07:23;16.80;;;11.53;;
16270;SDS011;8243;49.048;8.396;2023-03-01T11:09:48;17.17;;;12.93;;
16270;SDS011;8243;49.048;8.396;2023-03-01T11:12:14;14.03;;;10.13;;
16270;SDS011;8243;49.048;8.396;2023-03-01T11:14:48;16.03;;;9.90;;
16270;SDS011;8243;49.048;8.396;2023-03-01T11:17:18;14.13;;;9.70;;
16270;SDS011;8243;49.048;8.396;2023-03-01T11:20:02;14.93;;;11.77;;
16270;SDS011;8243;49.048;8.396;2023-03-01T11:22:54;16.33;;;12.50;;
16270;SDS011;8243;49.048;8.396;2023-03-01T11:25:26;16.87;;;12.10;;
16270;SDS011;8243;49.048;8.396;2023-03-01T11:27:57;15.37;;;11.00;;
16270;SDS011;8243;49.048;8.396;2023-03-01T11:30:39;17.77;;;11.67;;
16270;SDS011;8243;49.048;8.396;2023-03-01T11:33:13;16.60;;;11.57;;
16270;SDS011;8243;49.048;8.396;2023-03-01T11:35:46;17.70;;;11.63;;
16270;SDS011;8243;49.048;8.396;2023-03-01T11:38:35;15.63;;;11.93;;
16270;SDS011;8243;49.048;8.396;2023-03-01T11:41:04;13.93;;;9.87;;
16270;SDS011;8243;49.048;8.396;2023-03-01T11:43:47;13.63;;;9.47;;
16270;SDS011;8243;49.048;8.396;2023-03-01T11:54:28;16.17;;;11.13;;
16270;SDS011;8243;49.048;8.396;2023-03-01T11:57:10;16.70;;;12.23;;
16270;SDS011;8243;49.048;8.396;2023-03-01T12:00:00;19.93;;;12.00;;
16270;SDS011;8243;49.048;8.396;2023-03-01T12:02:56;15.10;;;10.07;;
16270;SDS011;8243;49.048;8.396;2023-03-01T12:05:59;14.30;;;11.43;;
16270;SDS011;8243;49.048;8.396;2023-03-01T12:17:37;16.50;;;12.00;;
16270;SDS011;8243;49.048;8.396;2023-03-01T12:20:24;15.37;;;10.90;;
16270;SDS011;8243;49.048;8.396;2023-03-01T12:23:24;16.07;;;11.80;;
16270;SDS011;8243;49.048;8.396;2023-03-01T12:31:29;15.43;;;9.20;;
16270;SDS011;8243;49.048;8.396;2023-03-01T12:34:20;16.40;;;11.23;;
16270;SDS011;8243;49.048;8.396;2023-03-01T12:45:52;13.67;;;11.00;;
16270;SDS011;8243;49.048;8.396;2023-03-01T12:48:50;12.23;;;8.57;;
16270;SDS011;8243;49.048;8.396;2023-03-01T12:51:19;15.37;;;11.83;;
16270;SDS011;8243;49.048;8.396;2023-03-01T12:53:49;17.67;;;12.53;;
16270;SDS011;8243;49.048;8.396;2023-03-01T12:56:26;14.40;;;10.30;;
16270;SDS011;8243;49.048;8.396;2023-03-01T12:59:01;15.13;;;11.23;;
16270;SDS011;8243;49.048;8.396;2023-03-01T13:10:19;15.47;;;12.87;;
16270;SDS011;8243;49.048;8.396;2023-03-01T13:17:47;11.87;;;10.33;;
16270;SDS011;8243;49.048;8.396;2023-03-01T13:20:21;11.43;;;8.87;;
16270;SDS011;8243;49.048;8.396;2023-03-01T13:23:08;13.30;;;10.87;;
16270;SDS011;8243;49.048;8.396;2023-03-01T13:31:06;15.67;;;10.47;;
16270;SDS011;8243;49.048;8.396;2023-03-01T13:33:37;19.97;;;12.33;;
16270;SDS011;8243;49.048;8.396;2023-03-01T13:36:06;14.83;;;10.90;;
16270;SDS011;8243;49.048;8.396;2023-03-01T13:41:11;15.03;;;12.37;;
16270;SDS011;8243;49.048;8.396;2023-03-01T13:43:40;14.63;;;9.77;;
16270;SDS011;8243;49.048;8.396;2023-03-01T13:46:25;16.07;;;11.47;;
16270;SDS011;8243;49.048;8.396;2023-03-01T13:48:52;15.40;;;12.63;;
16270;SDS011;8243;49.048;8.396;2023-03-01T13:51:22;14.47;;;11.73;;
16270;SDS011;8243;49.048;8.396;2023-03-01T13:53:50;14.93;;;11.63;;
16270;SDS011;8243;49.048;8.396;2023-03-01T13:56:33;18.77;;;12.73;;
16270;SDS011;8243;49.048;8.396;2023-03-01T13:59:04;16.53;;;11.47;;
16270;SDS011;8243;49.048;8.396;2023-03-01T14:01:32;15.07;;;10.20;;
16270;SDS011;8243;49.048;8.396;2023-03-01T14:03:59;14.07;;;11.07;;
16270;SDS011;8243;49.048;8.396;2023-03-01T14:06:43;14.33;;;10.60;;
16270;SDS011;8243;49.048;8.396;2023-03-01T14:09:18;15.00;;;10.57;;
16270;SDS011;8243;49.048;8.396;2023-03-01T14:14:51;13.20;;;10.20;;
16270;SDS011;8243;49.048;8.396;2023-03-01T14:19:57;13.67;;;10.37;;
16270;SDS011;8243;49.048;8.396;2023-03-01T14:22:28;14.33;;;11.43;;
16270;SDS011;8243;49.048;8.396;2023-03-01T14:25:01;14.53;;;10.10;;
16270;SDS011;8243;49.048;8.396;2023-03-01T14:27:35;11.60;;;9.03;;
16270;SDS011;8243;49.048;8.396;2023-03-01T14:30:11;16.23;;;10.57;;
16270;SDS011;8243;49.048;8.396;2023-03-01T14:32:40;14.60;;;11.73;;
16270;SDS011;8243;49.048;8.396;2023-03-01T14:35:18;14.23;;;10.90;;
16270;SDS011;8243;49.048;8.396;2023-03-01T14:37:46;13.77;;;10.77;;
16270;SDS011;8243;49.048;8.396;2023-03-01T14:40:20;12.53;;;9.60;;
16270;SDS011;8243;49.048;8.396;2023-03-01T14:42:49;12.57;;;10.33;;
16270;SDS011;8243;49.048;8.396;2023-03-01T14:45:15;12.90;;;8.70;;
16270;SDS011;8243;49.048;8.396;2023-03-01T14:47:43;13.60;;;10.83;;
16270;SDS011;8243;49.048;8.396;2023-03-01T14:50:26;12.80;;;9.47;;
16270;SDS011;8243;49.048;8.396;2023-03-01T14:53:00;13.63;;;10.20;;
16270;SDS011;8243;49.048;8.396;2023-03-01T14:55:32;16.23;;;9.93;;
16270;SDS011;8243;49.048;8.396;2023-03-01T14:58:09;15.10;;;11.17;;
16270;SDS011;8243;49.048;8.396;2023-03-01T15:00:38;15.20;;;11.53;;
16270;SDS011;8243;49.048;8.396;2023-03-01T15:03:10;14.60;;;10.83;;
16270;SDS011;8243;49.048;8.396;2023-03-01T15:05:39;14.67;;;10.80;;
16270;SDS011;8243;49.048;8.396;2023-03-01T15:08:07;17.27;;;12.07;;
16270;SDS011;8243;49.048;8.396;2023-03-01T15:10:54;13.67;;;10.33;;
16270;SDS011;8243;49.048;8.396;2023-03-01T15:13:26;16.33;;;12.77;;
16270;SDS011;8243;49.048;8.396;2023-03-01T15:18:42;15.40;;;12.00;;
16270;SDS011;8243;49.048;8.396;2023-03-01T15:23:47;14.43;;;10.37;;
16270;SDS011;8243;49.048;8.396;2023-03-01T15:26:22;14.73;;;10.50;;
16270;SDS011;8243;49.048;8.396;2023-03-01T15:28:54;13.43;;;11.13;;
16270;SDS011;8243;49.048;8.396;2023-03-01T15:31:36;14.57;;;11.90;;
16270;SDS011;8243;49.048;8.396;2023-03-01T15:36:52;11.37;;;10.00;;
16270;SDS011;8243;49.048;8.396;2023-03-01T15:39:27;16.93;;;11.40;;
16270;SDS011;8243;49.048;8.396;2023-03-01T15:41:55;15.83;;;11.60;;
16270;SDS011;8243;49.048;8.396;2023-03-01T15:44:27;14.33;;;10.17;;
16270;SDS011;8243;49.048;8.396;2023-03-01T15:46:55;16.30;;;12.30;;
16270;SDS011;8243;49.048;8.396;2023-03-01T15:51:50;13.37;;;10.17;;
16270;SDS011;8243;49.048;8.396;2023-03-01T15:54:19;13.20;;;10.10;;
16270;SDS011;8243;49.048;8.396;2023-03-01T15:56:47;13.77;;;11.10;;
16270;SDS011;8243;49.048;8.396;2023-03-01T15:59:13;13.33;;;11.43;;
16270;SDS011;8243;49.048;8.396;2023-03-01T16:01:39;14.30;;;11.03;;
16270;SDS011;8243;49.048;8.396;2023-03-01T16:04:09;15.47;;;11.70;;
16270;SDS011;8243;49.048;8.396;2023-03-01T16:06:41;14.43;;;12.10;;
16270;SDS011;8243;49.048;8.396;2023-03-01T16:09:06;14.20;;;10.03;;
16270;SDS011;8243;49.048;8.396;2023-03-01T16:11:32;13.67;;;9.57;;
16270;SDS011;8243;49.048;8.396;2023-03-01T16:14:01;14.33;;;10.80;;
16270;SDS011;8243;49.048;8.396;2023-03-01T16:16:27;13.87;;;11.00;;
16270;SDS011;8243;49.048;8.396;2023-03-01T16:18:53;13.07;;;9.73;;
16270;SDS011;8243;49.048;8.396;2023-03-01T16:21:20;13.93;;;11.40;;
16270;SDS011;8243;49.048;8.396;2023-03-01T16:23:48;16.13;;;11.40;;
16270;SDS011;8243;49.048;8.396;2023-03-01T16:26:14;14.77;;;11.50;;
16270;SDS011;8243;49.048;8.396;2023-03-01T16:28:41;15.60;;;12.37;;
16270;SDS011;8243;49.048;8.396;2023-03-01T16:31:07;15.20;;;11.83;;
16270;SDS011;8243;49.048;8.396;2023-03-01T16:33:34;16.50;;;10.13;;
16270;SDS011;8243;49.048;8.396;2023-03-01T16:36:07;14.97;;;12.43;;
16270;SDS011;8243;49.048;8.396;2023-03-01T16:38:34;15.23;;;12.17;;